Main page
METAR-TAF:

METAR-TAF

Airports :

Ibiza Airport

Ibiza, Spain

latitude: 38-52N, longitude: 001-23E, elevation: 7 m

Current weather observation

The report was made 17 minutes ago, at 22:30 UTC
Wind 7 kt from the Southwest
Temperature 14°C
Humidity 100%
Pressure 1022 hPa
Visibility 10 km or more
no clouds below 1500 m and no cumulonimbus

METAR: LEIB 272230Z 23007KT CAVOK 14/14 Q1022 NOSIG

Time: 23:47 (22:47 UTC)

Forecast

The report was made 2 hours and 47 minutes ago, at 20:00 UTC
Forecast valid from 27 at 21 UTC to 28 at 21 UTC
Wind 6 kt from the Southwest
Visibility 10 km or more
Few clouds at a height of 2000 ft
Probability 30% :
Temporary
from 28 at 06 UTC to 28 at 15 UTC
Visibility: 1500 m
Broken clouds at a height of 200 ft
mist

TAF: LEIB 272000Z 2721/2821 22006KT 9999 FEW020 TX18/2812Z TN11/2806Z PROB30 TEMPO 2806/2815 1500 BR BKN002

Weather observations and forecasts of more than 4000 airports (METAR and TAF reports).

The available stations are represented by yellow and red dots on the map.

Hover mouse over dot to see the name of the station.

Then click to see weather observations and forecasts.

To change the map : click on the green buttons with a black cross to zoom in, on the green button with a dash to zoom out, or on the green arrows for adjacent maps.


METAR-TAF: